Aérodrome :
LOGIN :

S'inscrire | Disclaimer

   EN    FR    IT 

 










Légende :    VFR   VFR Marginal   IFR   IFR Intensif   IFR Très Intensif
Visi : 
Plafond : 
>= 8 km
>= 3000ft
5 à 8 km
1000 à 3000 ft
1500m à 5 km
500 à 1000 ft
800 à 1500m
200 à 500 ft
< 800m
< 200 ft
Symboles :   Orages  Brouillard  Fortes neiges  Fortes précipitations  Vent > 20 kt
SIGMETs :   Divers  Orages  Givrage  Turbulence  Onde Orograph.  Cendres Volcan.






- Altitude de l'aérodrome : 228 ft
- Code IATA : OPO


LPPR - Porto Fr. Sa Carneiro

DERNIER METAR :
  • 081200Z 21009KT 9999 SCT006 20/17 Q1019

METARs EXPIRÉS :
  • 081130Z 19009KT 160V220 9999 FEW004 SCT007 19/18 Q1019
  • 081100Z 19009KT 8000 SCT003 BKN006 20/19 Q1019
  • 081030Z 19007KT 5000 BR FEW001 BKN003 18/18 Q1019
  • 081000Z 19006KT 2500 BCFG BR SCT001 BKN002 18/18 Q1019
  • 080930Z 19006KT 160V220 1100 R17/P2000 BCFG BKN001 18/18 Q1019

TAF TAF LPPR
Valide du 08 à 12h jusqu'au 09 à 12h UTC


081112Z 0812/0912 21008KT 8000 SCT008 SCT012
TEMPO 0812/0819 5000 BR BKN004
BECMG 0819/0822 17005KT 3000 BR SCT001 BKN003
TEMPO 0822/0910 0800 PRFG BKN001
PROB30
TEMPO 0822/0909 0200 FG VV001
BECMG 0910/0912 21007KT 8000 NSW SCT004 BKN008



MET'MAP, la Météo Aéronautique d'un coup d'oeil ! - Copyright ORBIFLY Décembre 2007 - Disclaimer

ORBIFLY MET'MAP TEAM :

Programmation & Développement : Alexandra Zaïnal
Sur une idée originale de : Baudouin d'Aumeries
Assistance à la programmation : Marc-Olivier Méhu
Soutien technique & logistique : Manuel Goepfert

Contact : metmap@orbifly.com




SOURCES & CREDITS :

   NOAA